Time;durP1;ratioP1;P1;durP2;ratioP2;P2;SDS_P1;SDS_P2;PMS_P1;PMS_P2;Temp;Humidity;BMP_temperature;BMP_pressure;BME280_temperature;BME280_humidity;BME280_pressure;Samples;Min_cycle;Max_cycle;Signal;HPM_P1;HPM_P2
2021/11/20 00:00:16;;;;;;;9.93;3.05;;;;;;;10.94;72.81;100772.45;1723275;82;21748;-72
2021/11/20 00:02:44;;;;;;;10.75;3.05;;;;;;;10.91;72.83;100800.05;1717031;83;21074;-72
2021/11/20 00:05:13;;;;;;;14.70;3.67;;;;;;;10.87;72.77;100805.67;1723466;83;21119;-72
2021/11/20 00:07:40;;;;;;;15.38;3.47;;;;;;;10.87;72.86;100819.72;1717053;83;21579;-72
2021/11/20 00:10:09;;;;;;;13.48;4.35;;;;;;;10.86;72.80;100846.89;1723214;83;21068;-72
2021/11/20 00:12:37;;;;;;;17.77;3.77;;;;;;;10.86;72.79;100836.80;1717007;83;21752;-72
2021/11/20 00:15:08;;;;;;;14.63;3.85;;;;;;;10.84;72.76;100819.63;1723302;82;21096;-72
2021/11/20 00:17:35;;;;;;;14.70;3.50;;;;;;;10.80;72.77;100844.11;1717013;83;21113;-72
2021/11/20 00:20:02;;;;;;;14.65;4.42;;;;;;;10.79;72.72;100864.73;1724717;82;21069;-72
2021/11/20 00:22:32;;;;;;;10.65;2.95;;;;;;;10.76;72.70;100850.59;1717099;83;21090;-72
2021/11/20 00:25:10;;;;;;;13.15;3.00;;;;;;;10.71;72.53;100860.98;1723554;82;21964;-72
2021/11/20 00:27:37;;;;;;;14.20;3.92;;;;;;;10.68;72.60;100836.80;1715721;83;21074;-71
2021/11/20 00:30:14;;;;;;;14.45;3.77;;;;;;;10.66;72.61;100866.14;1723078;82;21686;-71
2021/11/20 00:32:59;;;;;;;15.13;3.65;;;;;;;10.64;72.65;100875.75;1716992;83;22247;-71
2021/11/20 00:35:35;;;;;;;13.05;3.22;;;;;;;10.64;72.63;100864.30;1722751;82;21061;-71
2021/11/20 00:38:02;;;;;;;;;;;;;;;10.58;72.66;100874.67;1719799;83;21836;-71
2021/11/20 00:40:37;;;;;;;15.28;3.70;;;;;;;10.56;72.57;100898.75;1713851;83;20715;-71
2021/11/20 00:43:03;;;;;;;20.08;3.87;;;;;;;10.49;72.51;100900.30;1722969;83;21084;-71
2021/11/20 00:45:30;;;;;;;14.03;4.17;;;;;;;10.43;72.65;100879.98;1717314;83;21686;-71
2021/11/20 00:47:57;;;;;;;17.95;4.33;;;;;;;10.40;72.68;100900.05;1723236;83;21089;-72
2021/11/20 00:50:24;;;;;;;20.77;4.55;;;;;;;10.33;72.61;100889.80;1716940;83;21754;-71
2021/11/20 00:52:50;;;;;;;19.50;4.62;;;;;;;10.30;72.60;100912.03;1723170;83;21601;-71
2021/11/20 00:55:23;;;;;;;19.07;4.67;;;;;;;10.24;72.64;100923.70;1717114;83;21101;-72
2021/11/20 00:57:51;;;;;;;19.32;4.40;;;;;;;10.20;72.73;100931.03;1723686;82;21121;-72
2021/11/20 01:00:21;;;;;;;13.98;3.65;;;;;;;10.15;72.70;100918.16;1717247;83;21074;-73
2021/11/20 01:02:48;;;;;;;20.27;4.45;;;;;;;10.11;72.70;100901.40;1700526;83;21880;-73
2021/11/20 01:05:14;;;;;;;23.15;4.50;;;;;;;10.06;72.74;100935.47;1717099;83;21002;-73
2021/11/20 01:07:41;;;;;;;19.20;4.20;;;;;;;10.03;72.79;100945.88;1723099;82;21069;-73
2021/11/20 01:10:10;;;;;;;15.88;4.10;;;;;;;10.02;72.88;100959.89;1716853;83;21105;-73
2021/11/20 01:12:37;;;;;;;15.23;4.50;;;;;;;10.02;72.89;100968.19;1723250;83;21092;-73
2021/11/20 01:15:08;;;;;;;19.65;5.28;;;;;;;10.03;72.86;100963.41;1717034;83;21763;-73
2021/11/20 01:17:35;;;;;;;19.37;4.40;;;;;;;9.99;72.84;100966.37;1723212;83;21034;-74
2021/11/20 01:20:04;;;;;;;20.48;5.17;;;;;;;9.96;72.86;100956.17;1717215;83;21615;-74
2021/11/20 01:22:31;;;;;;;21.65;5.58;;;;;;;9.89;72.83;100952.45;1723518;83;21072;-74
2021/11/20 01:24:58;;;;;;;21.42;6.83;;;;;;;9.87;72.90;100953.73;1717062;83;21113;-73
2021/11/20 01:27:25;;;;;;;24.35;5.60;;;;;;;9.85;72.90;100969.89;1723288;83;22693;-73
2021/11/20 01:29:52;;;;;;;22.55;7.58;;;;;;;9.81;72.95;100959.22;1717289;83;21046;-73
2021/11/20 01:32:19;;;;;;;23.87;5.55;;;;;;;9.77;72.93;100982.31;1724273;82;21101;-72
2021/11/20 01:34:46;;;;;;;20.80;5.00;;;;;;;9.72;73.00;100988.72;1706082;83;21079;-73
2021/11/20 01:37:15;;;;;;;24.85;4.45;;;;;;;9.68;72.97;100970.64;1724565;83;21046;-72
2021/11/20 01:39:43;;;;;;;20.05;4.62;;;;;;;9.67;73.05;100994.27;1706046;83;21806;-73
2021/11/20 01:42:20;;;;;;;19.80;5.60;;;;;;;9.64;73.05;100989.79;1724607;81;21342;-73
2021/11/20 01:44:55;;;;;;;28.17;6.28;;;;;;;9.61;73.02;100993.66;1706323;83;21031;-72
2021/11/20 01:47:37;;;;;;;24.07;4.78;;;;;;;9.59;73.04;100997.05;1724565;83;21022;-72
2021/11/20 01:50:11;;;;;;;20.15;4.92;;;;;;;9.59;73.12;100999.68;1706315;83;21114;-72
2021/11/20 01:52:46;;;;;;;23.30;5.22;;;;;;;9.57;73.12;101000.05;1724505;83;22618;-72
2021/11/20 01:55:22;;;;;;;20.43;4.70;;;;;;;9.51;73.16;101009.52;1706183;83;21086;-72
2021/11/20 01:57:57;;;;;;;23.35;5.22;;;;;;;9.50;73.25;101009.05;1724506;83;21653;-72
2021/11/20 02:00:45;;;;;;;25.05;5.45;;;;;;;9.46;73.29;101014.14;1705847;84;21098;-72
2021/11/20 02:03:22;;;;;;;25.57;5.95;;;;;;;9.45;73.37;101019.83;1724726;83;21045;-72
2021/11/20 02:06:12;;;;;;;22.00;5.50;;;;;;;9.45;73.39;101011.06;1706045;84;22632;-72
2021/11/20 02:08:52;;;;;;;22.10;5.05;;;;;;;9.46;73.40;101023.34;1725973;82;21049;-72
2021/11/20 02:11:28;;;;;;;27.82;5.00;;;;;;;9.43;73.33;101019.31;1705976;83;21043;-72
2021/11/20 02:13:55;;;;;;;24.05;5.70;;;;;;;9.39;73.29;101022.25;1724919;82;21041;-72
2021/11/20 02:16:30;;;;;;;26.15;5.90;;;;;;;9.37;73.35;101019.11;1706679;84;21007;-72
2021/11/20 02:19:00;;;;;;;26.95;5.85;;;;;;;9.35;73.37;101023.00;1717088;83;21724;-72
2021/11/20 02:21:41;;;;;;;30.20;5.85;;;;;;;9.31;73.35;101036.44;1706437;84;21051;-72
2021/11/20 02:24:07;;;;;;;32.13;5.90;;;;;;;9.29;73.35;101028.02;1724492;82;21084;-72
2021/11/20 02:26:33;;;;;;;30.92;5.80;;;;;;;9.25;73.41;101034.92;1706399;83;20987;-72
2021/11/20 02:29:04;;;;;;;20.82;5.17;;;;;;;9.26;73.44;101031.44;1724701;83;21633;-72
2021/11/20 02:31:31;;;;;;;31.52;5.70;;;;;;;9.25;73.45;101030.07;1713523;83;21999;-72
2021/11/20 02:33:58;;;;;;;25.57;6.33;;;;;;;9.23;73.42;101041.83;1723002;83;21235;-73
2021/11/20 02:36:24;;;;;;;28.80;6.35;;;;;;;9.22;73.51;101033.92;1717377;83;21109;-72
2021/11/20 02:39:05;;;;;;;33.42;6.87;;;;;;;9.23;73.58;101027.38;1723545;83;21603;-73
2021/11/20 02:41:33;;;;;;;25.20;6.08;;;;;;;9.25;73.58;101039.27;1717441;83;21121;-73
2021/11/20 02:44:01;;;;;;;31.60;6.87;;;;;;;9.29;73.59;101033.27;1723468;82;21755;-72
2021/11/20 02:46:34;;;;;;;32.30;6.55;;;;;;;9.24;73.52;101026.56;1717347;83;21583;-71
2021/11/20 02:49:00;;;;;;;35.03;6.40;;;;;;;9.23;73.54;101031.33;1723668;82;21587;-71
2021/11/20 02:51:31;;;;;;;29.85;6.78;;;;;;;9.21;73.56;101033.44;1717460;83;21294;-71
2021/11/20 02:54:11;;;;;;;24.00;5.75;;;;;;;9.20;73.59;101040.86;1723582;83;21056;-71
2021/11/20 02:57:00;;;;;;;25.70;5.67;;;;;;;9.18;73.66;101032.92;1717125;83;21749;-73
2021/11/20 02:59:27;;;;;;;24.52;5.97;;;;;;;9.19;73.69;101037.31;1723389;82;21388;-72
2021/11/20 03:01:54;;;;;;;32.23;6.28;;;;;;;9.17;73.69;101045.56;1717132;83;21122;-72
2021/11/20 03:04:22;;;;;;;22.77;5.62;;;;;;;9.20;73.76;101043.48;1723332;82;21543;-72
2021/11/20 03:06:52;;;;;;;24.98;5.35;;;;;;;9.19;73.71;101044.31;1717041;83;21066;-72
2021/11/20 03:09:20;;;;;;;22.00;5.20;;;;;;;9.15;73.71;101049.44;1723176;83;21797;-72
2021/11/20 03:11:47;;;;;;;25.55;5.92;;;;;;;9.15;73.79;101041.98;1716919;83;21062;-72
2021/11/20 03:14:14;;;;;;;26.65;5.85;;;;;;;9.14;73.81;101042.42;1723284;83;21037;-72
2021/11/20 03:16:43;;;;;;;31.50;6.72;;;;;;;9.11;73.77;101043.61;1718722;83;21478;-72
2021/11/20 03:19:10;;;;;;;32.33;7.00;;;;;;;9.10;73.89;101045.78;1723525;82;21053;-72
2021/11/20 03:21:40;;;;;;;28.02;6.65;;;;;;;9.09;73.90;101061.48;1717145;83;21796;-72
2021/11/20 03:24:06;;;;;;;25.25;5.70;;;;;;;9.07;73.91;101066.67;1723181;82;21120;-72
2021/11/20 03:26:33;;;;;;;31.05;6.95;;;;;;;9.06;73.92;101074.48;1717111;83;21074;-72
2021/11/20 03:29:02;;;;;;;30.65;6.55;;;;;;;9.00;73.91;101080.41;1722716;82;21542;-72
2021/11/20 03:31:30;;;;;;;30.88;6.42;;;;;;;8.94;73.95;101085.02;1718268;83;21593;-72
2021/11/20 03:33:57;;;;;;;25.43;6.08;;;;;;;8.92;74.02;101082.75;1725119;82;21790;-72
2021/11/20 03:36:24;;;;;;;27.02;5.67;;;;;;;8.89;74.06;101094.44;1713827;83;21011;-72
2021/11/20 03:38:50;;;;;;;25.35;5.67;;;;;;;8.86;74.10;101089.09;1724871;83;21299;-72
2021/11/20 03:41:17;;;;;;;32.20;6.95;;;;;;;8.85;74.23;101091.23;1714264;83;21544;-72
2021/11/20 03:43:45;;;;;;;26.90;6.35;;;;;;;8.81;74.19;101102.45;1725074;83;21486;-72
2021/11/20 03:46:11;;;;;;;31.27;5.80;;;;;;;8.80;74.33;101091.89;1718901;83;21831;-72
2021/11/20 03:48:38;;;;;;;25.32;5.67;;;;;;;8.80;74.33;101103.28;1724651;83;21069;-71
2021/11/20 03:51:05;;;;;;;28.42;5.72;;;;;;;8.78;74.39;101108.02;1713887;83;21070;-72
2021/11/20 03:53:32;;;;;;;30.55;6.67;;;;;;;8.76;74.39;101100.07;1724878;83;21096;-72
2021/11/20 03:55:59;;;;;;;25.20;5.40;;;;;;;8.72;74.45;101100.80;1714178;83;21089;-72
2021/11/20 03:58:26;;;;;;;28.50;6.17;;;;;;;8.71;74.55;101103.84;1725090;83;21787;-72
2021/11/20 04:01:05;;;;;;;29.07;5.60;;;;;;;8.68;74.54;101102.41;1714109;83;21118;-72
2021/11/20 04:03:34;;;;;;;28.45;6.45;;;;;;;8.67;74.59;101104.97;1725175;83;21581;-72
2021/11/20 04:06:00;;;;;;;30.75;6.72;;;;;;;8.65;74.71;101110.19;1718969;83;21078;-72
2021/11/20 04:08:27;;;;;;;28.98;6.25;;;;;;;8.64;74.74;101107.50;1725039;82;21092;-72
2021/11/20 04:10:56;;;;;;;28.25;6.67;;;;;;;8.62;74.73;101107.86;1719022;83;21906;-72
2021/11/20 04:13:23;;;;;;;32.13;6.25;;;;;;;8.63;74.87;101116.19;1724877;82;21049;-72
2021/11/20 04:15:52;;;;;;;28.20;5.75;;;;;;;8.59;74.83;101115.59;1713931;83;21349;-72
2021/11/20 04:18:18;;;;;;;21.33;6.12;;;;;;;8.59;74.86;101114.28;1724865;82;21073;-71
2021/11/20 04:20:45;;;;;;;32.80;6.47;;;;;;;8.56;74.83;101119.01;1718622;83;21149;-72
2021/11/20 04:23:12;;;;;;;24.35;5.55;;;;;;;8.54;74.88;101124.62;1724696;83;21747;-72
2021/11/20 04:25:39;;;;;;;31.15;6.65;;;;;;;8.50;74.89;101127.92;1714042;83;21066;-72
2021/11/20 04:28:05;;;;;;;28.62;5.15;;;;;;;8.49;74.99;101141.90;1724880;83;21693;-72
2021/11/20 04:30:32;;;;;;;31.82;5.67;;;;;;;8.50;75.09;101134.48;1718452;83;21208;-72
2021/11/20 04:32:59;;;;;;;26.68;6.47;;;;;;;8.49;75.07;101143.21;1724591;82;21666;-72
2021/11/20 04:35:26;;;;;;;24.10;5.40;;;;;;;8.47;75.09;101145.77;1706320;83;22497;-72
2021/11/20 04:37:53;;;;;;;28.17;6.53;;;;;;;8.45;75.11;101141.30;1724306;83;21113;-72
2021/11/20 04:40:19;;;;;;;34.48;6.53;;;;;;;8.42;75.16;101145.99;1706331;83;21101;-72
2021/11/20 04:42:46;;;;;;;27.42;6.10;;;;;;;8.40;75.21;101141.50;1724531;82;21105;-72
2021/11/20 04:45:16;;;;;;;27.93;6.37;;;;;;;8.37;75.25;101144.48;1706157;84;21090;-72
2021/11/20 04:47:43;;;;;;;33.13;6.55;;;;;;;8.36;75.29;101141.36;1724731;83;22584;-72
2021/11/20 04:50:10;;;;;;;41.85;6.47;;;;;;;8.36;75.35;101149.23;1706027;83;21095;-72
2021/11/20 04:52:37;;;;;;;30.65;6.20;;;;;;;8.36;75.37;101144.41;1724542;82;21069;-72
2021/11/20 04:55:04;;;;;;;27.82;5.67;;;;;;;8.34;75.40;101148.70;1706098;83;21170;-72
2021/11/20 04:57:31;;;;;;;27.45;6.37;;;;;;;8.31;75.47;101157.32;1724604;82;21131;-72
2021/11/20 04:59:58;;;;;;;22.48;6.20;;;;;;;8.32;75.58;101161.75;1706046;83;21679;-73
2021/11/20 05:02:27;;;;;;;28.75;6.22;;;;;;;8.33;75.61;101161.33;1724170;81;21049;-72
2021/11/20 05:04:54;;;;;;;32.73;6.75;;;;;;;8.32;75.62;101155.61;1706146;84;21711;-72
2021/11/20 05:07:21;;;;;;;28.62;5.85;;;;;;;8.32;75.71;101158.23;1724709;82;21622;-72
2021/11/20 05:09:53;;;;;;;29.25;5.97;;;;;;;8.29;75.64;101162.92;1706193;84;21703;-72
2021/11/20 05:12:17;;;;;;;26.65;6.00;;;;;;;8.27;75.71;101164.59;1723994;83;21769;-72
2021/11/20 05:14:44;;;;;;;27.45;5.78;;;;;;;8.26;75.74;101168.06;1706045;84;21075;-72
2021/11/20 05:17:10;;;;;;;33.33;6.40;;;;;;;8.26;75.76;101172.39;1724487;83;21077;-72
2021/11/20 05:19:37;;;;;;;27.55;6.15;;;;;;;8.25;75.84;101168.00;1706036;84;21118;-72
2021/11/20 05:22:04;;;;;;;25.88;6.22;;;;;;;8.24;75.85;101171.05;1724565;81;22236;-72
2021/11/20 05:24:32;;;;;;;27.37;6.20;;;;;;;8.22;75.81;101176.64;1705857;84;40699;-76
2021/11/20 05:27:01;;;;;;;29.87;5.80;;;;;;;8.22;75.96;101169.17;1724536;83;21052;-73
2021/11/20 05:29:45;;;;;;;34.00;7.42;;;;;;;8.22;75.95;101174.41;1706059;84;21111;-73
2021/11/20 05:31:56;;;;;;;35.03;6.20;;;;;;;8.20;75.90;101176.97;1720214;83;21031;-73
2021/11/20 05:34:22;;;;;;;30.75;5.65;;;;;;;8.18;75.94;101178.63;1720385;82;21059;-72
2021/11/20 05:36:49;;;;;;;25.10;5.60;;;;;;;8.18;76.01;101186.50;1701779;82;21935;-72
2021/11/20 05:39:18;;;;;;;29.45;6.00;;;;;;;8.16;76.04;101193.02;1713303;82;21066;-72
2021/11/20 05:41:44;;;;;;;25.77;5.65;;;;;;;8.18;76.14;101183.88;1716268;82;21073;-72
2021/11/20 05:44:12;;;;;;;25.30;5.75;;;;;;;8.21;76.17;101191.00;1696091;83;21063;-72
2021/11/20 05:46:39;;;;;;;33.95;6.90;;;;;;;8.23;76.23;101184.09;1722904;83;21088;-72
2021/11/20 05:49:06;;;;;;;30.48;6.28;;;;;;;8.25;76.21;101180.69;1722866;82;21744;-71
2021/11/20 05:51:34;;;;;;;27.87;5.85;;;;;;;8.28;76.19;101180.82;1722970;82;21075;-73
2021/11/20 05:54:01;;;;;;;33.90;7.70;;;;;;;8.30;76.24;101181.77;1700819;83;21090;-73
2021/11/20 05:56:28;;;;;;;27.13;5.92;;;;;;;8.33;76.24;101185.84;1723193;83;21561;-72
2021/11/20 05:58:54;;;;;;;28.00;6.03;;;;;;;8.36;76.26;101195.13;1723134;83;21118;-72
2021/11/20 06:01:21;;;;;;;29.48;6.05;;;;;;;8.43;76.28;101194.09;1723240;83;21843;-72
2021/11/20 06:03:49;;;;;;;30.45;6.90;;;;;;;8.48;76.24;101195.19;1723005;83;21564;-72
2021/11/20 06:06:17;;;;;;;26.10;6.42;;;;;;;8.51;76.16;101200.14;1722944;83;21036;-72
2021/11/20 06:08:44;;;;;;;23.85;5.83;;;;;;;8.52;76.07;101201.95;1723443;82;21660;-72
2021/11/20 06:11:11;;;;;;;33.02;6.72;;;;;;;8.51;76.02;101193.59;1723159;83;21070;-72
2021/11/20 06:13:44;;;;;;;24.90;5.70;;;;;;;8.52;76.01;101201.03;1699799;83;21106;-72
2021/11/20 06:16:08;;;;;;;33.65;10.95;;;;;;;8.48;76.10;101197.81;1722384;83;21067;-72
2021/11/20 06:18:35;;;;;;;29.18;7.67;;;;;;;8.62;76.14;101220.27;1723194;83;21541;-71
2021/11/20 06:21:04;;;;;;;31.50;10.13;;;;;;;8.65;76.03;101219.09;1723413;83;21067;-72
2021/11/20 06:23:34;;;;;;;37.75;10.82;;;;;;;8.67;75.96;101216.50;1723358;82;21167;-71
2021/11/20 06:25:59;;;;;;;41.53;11.00;;;;;;;8.70;75.92;101235.01;1685967;84;21223;-72
2021/11/20 06:28:25;;;;;;;31.62;8.98;;;;;;;8.75;76.06;101233.47;1686333;85;21055;-73
2021/11/20 06:30:52;;;;;;;39.42;11.83;;;;;;;8.84;76.04;101233.84;1686373;84;21639;-73
2021/11/20 06:33:19;;;;;;;36.48;12.03;;;;;;;8.89;75.87;101232.70;1687615;84;21149;-73
2021/11/20 06:35:46;;;;;;;31.07;6.90;;;;;;;8.94;75.83;101242.97;1687982;84;21105;-73
2021/11/20 06:38:12;;;;;;;31.68;8.00;;;;;;;9.01;75.83;101250.26;1687798;84;21827;-73
2021/11/20 06:40:45;;;;;;;28.73;7.45;;;;;;;9.09;75.83;101261.95;1706946;84;21061;-73
2021/11/20 06:43:13;;;;;;;30.72;8.08;;;;;;;9.18;75.75;101264.44;1735552;82;21051;-73
2021/11/20 06:45:46;;;;;;;38.35;7.75;;;;;;;9.26;75.60;101265.66;1708581;82;21771;-73
2021/11/20 06:48:15;;;;;;;34.18;7.10;;;;;;;9.32;75.48;101268.08;1735273;82;21055;-72
2021/11/20 06:50:43;;;;;;;31.87;7.37;;;;;;;9.37;75.35;101270.02;1736499;82;21762;-73
2021/11/20 06:53:11;;;;;;;34.20;7.22;;;;;;;9.37;75.21;101273.53;1735994;82;21678;-73
2021/11/20 06:55:38;;;;;;;33.25;7.67;;;;;;;9.40;75.14;101271.00;1735916;82;21095;-73
2021/11/20 06:59:07;;;;;;;26.75;5.83;;;;;;;9.39;74.99;101279.73;1735570;82;21385;-73
2021/11/20 07:00:54;;;;;;;34.83;7.28;;;;;;;9.39;74.90;101273.59;1710112;82;21150;-73
2021/11/20 07:03:39;;;;;;;25.45;5.87;;;;;;;9.36;74.85;101274.78;1735301;82;23227;-73
2021/11/20 07:06:19;;;;;;;22.55;6.58;;;;;;;9.32;74.77;101273.77;1736301;82;21090;-73
2021/11/20 07:08:48;;;;;;;35.90;6.87;;;;;;;9.28;74.72;101267.92;1736175;82;21086;-73
2021/11/20 07:11:15;;;;;;;26.80;6.92;;;;;;;9.25;74.79;101262.14;1709297;82;21055;-73
2021/11/20 07:13:43;;;;;;;31.97;6.65;;;;;;;9.27;74.81;101270.05;1736381;82;21088;-73
2021/11/20 07:16:13;;;;;;;26.37;6.25;;;;;;;9.26;74.81;101262.59;1736084;82;22557;-73
2021/11/20 07:18:42;;;;;;;25.08;5.62;;;;;;;9.29;74.81;101257.48;1733785;82;21545;-73
2021/11/20 07:21:10;;;;;;;28.65;7.17;;;;;;;9.34;74.84;101252.38;1709308;82;21104;-73
2021/11/20 07:23:37;;;;;;;30.55;6.55;;;;;;;9.39;74.82;101254.77;1736651;82;21068;-73
2021/11/20 07:26:05;;;;;;;33.13;6.67;;;;;;;9.47;74.84;101243.23;1736385;82;21102;-73
2021/11/20 07:28:40;;;;;;;35.92;7.72;;;;;;;9.56;74.86;101242.27;1731940;82;21766;-80
2021/11/20 07:31:16;;;;;;;33.70;7.00;;;;;;;9.75;74.97;101245.57;1684961;84;21156;-78
2021/11/20 07:33:45;;;;;;;30.05;6.30;;;;;;;9.95;74.86;101246.27;1721566;83;21574;-79
2021/11/20 07:36:12;;;;;;;29.80;6.17;;;;;;;10.12;74.63;101253.92;1722058;83;21244;-79
2021/11/20 07:38:49;;;;;;;26.30;6.75;;;;;;;10.22;74.32;101241.97;1704868;84;21081;-79
2021/11/20 07:41:16;;;;;;;28.77;6.58;;;;;;;10.26;74.00;101236.40;1704158;84;22647;-78
2021/11/20 07:43:43;;;;;;;30.40;6.83;;;;;;;10.30;73.82;101238.28;1695258;84;21124;-78
2021/11/20 07:46:12;;;;;;;31.35;6.65;;;;;;;10.30;73.69;101242.23;1701007;84;21757;-77
2021/11/20 07:48:42;;;;;;;29.00;6.33;;;;;;;10.33;73.58;101233.60;1701486;84;21148;-78
2021/11/20 07:51:09;;;;;;;31.17;7.22;;;;;;;10.35;73.50;101238.06;1701262;84;22039;-78
2021/11/20 07:53:36;;;;;;;30.68;7.60;;;;;;;10.45;73.51;101255.93;1701415;84;21769;-78
2021/11/20 07:56:03;;;;;;;30.57;7.05;;;;;;;10.57;73.46;101250.20;1701615;84;21125;-84
2021/11/20 07:58:29;;;;;;;25.52;6.65;;;;;;;10.69;73.25;101254.97;1702518;84;21110;-84
2021/11/20 08:00:56;;;;;;;27.20;5.70;;;;;;;10.78;73.05;101254.38;1702084;84;21074;-84
2021/11/20 08:03:26;;;;;;;24.85;6.58;;;;;;;10.84;72.91;101248.88;1701968;84;21089;-83
2021/11/20 08:05:54;;;;;;;23.20;6.37;;;;;;;10.88;72.80;101255.13;1701935;84;21783;-83
2021/11/20 08:08:24;;;;;;;21.68;5.75;;;;;;;10.90;72.47;101258.70;1677377;84;21144;-80
2021/11/20 08:10:50;;;;;;;30.05;7.20;;;;;;;10.88;72.38;101257.77;1701610;84;21101;-78
2021/11/20 08:13:17;;;;;;;23.95;6.58;;;;;;;10.84;72.18;101254.14;1701754;84;21249;-72
2021/11/20 08:15:44;;;;;;;21.90;6.70;;;;;;;10.80;72.17;101253.58;1701548;84;21133;-73
2021/11/20 08:18:11;;;;;;;30.17;6.85;;;;;;;10.78;72.11;101249.12;1701710;84;22677;-72
2021/11/20 08:20:42;;;;;;;26.12;5.87;;;;;;;10.79;72.20;101240.35;1701930;84;21823;-73
2021/11/20 08:23:10;;;;;;;25.23;7.20;;;;;;;10.81;72.24;101250.52;1701351;84;21077;-72
2021/11/20 08:25:41;;;;;;;23.73;6.67;;;;;;;10.88;72.22;101252.50;1702113;84;21089;-72
2021/11/20 08:28:07;;;;;;;35.80;6.53;;;;;;;10.98;72.23;101254.59;1701334;84;21112;-72
2021/11/20 08:30:33;;;;;;;28.27;7.55;;;;;;;11.09;72.16;101252.27;1701493;84;21767;-72
2021/11/20 08:33:01;;;;;;;28.30;6.50;;;;;;;11.22;72.06;101244.33;1688628;84;21094;-72
2021/11/20 08:35:27;;;;;;;26.82;6.25;;;;;;;11.34;71.93;101249.09;1685722;85;21129;-72
2021/11/20 08:37:54;;;;;;;25.00;6.40;;;;;;;11.47;71.77;101236.31;1686177;84;21106;-72
2021/11/20 08:40:28;;;;;;;23.40;6.45;;;;;;;11.55;71.51;101231.69;1686135;85;21101;-72
2021/11/20 08:42:54;;;;;;;29.23;6.75;;;;;;;11.58;71.32;101237.94;1687218;84;22397;-73
2021/11/20 08:45:23;;;;;;;25.77;5.97;;;;;;;11.57;71.04;101233.94;1686128;85;21077;-72
2021/11/20 08:47:52;;;;;;;27.98;6.72;;;;;;;11.53;70.81;101228.12;1686079;85;21097;-73
2021/11/20 08:50:33;;;;;;;29.50;6.87;;;;;;;11.50;70.73;101220.98;1686077;85;21627;-72
2021/11/20 08:53:00;;;;;;;28.83;6.50;;;;;;;11.58;70.79;101225.16;1686303;84;21086;-72
2021/11/20 08:55:27;;;;;;;22.35;5.83;;;;;;;11.73;70.75;101211.12;1685917;85;22493;-72
2021/11/20 08:57:54;;;;;;;27.05;6.80;;;;;;;11.80;70.49;101214.80;1686022;85;21129;-72
2021/11/20 09:00:26;;;;;;;23.52;5.47;;;;;;;11.82;70.41;101214.41;1686301;85;21073;-72
2021/11/20 09:03:03;;;;;;;25.92;6.62;;;;;;;11.79;70.08;101209.07;1686680;85;21134;-73
2021/11/20 09:05:35;;;;;;;29.77;6.40;;;;;;;11.75;69.97;101205.86;1686168;84;21188;-73
2021/11/20 09:08:07;;;;;;;27.70;6.55;;;;;;;11.75;69.99;101209.41;1701745;84;21784;-72
2021/11/20 09:10:48;;;;;;;30.60;7.97;;;;;;;11.79;69.95;101220.50;1684699;84;21098;-72
2021/11/20 09:13:26;;;;;;;23.80;6.45;;;;;;;11.80;69.87;101219.64;1685230;85;21165;-73
2021/11/20 09:16:01;;;;;;;20.17;5.80;;;;;;;11.88;69.90;101219.87;1685166;84;21375;-72
2021/11/20 09:18:29;;;;;;;28.70;6.83;;;;;;;11.88;69.54;101210.64;1684660;84;21023;-72
2021/11/20 09:20:56;;;;;;;31.40;6.72;;;;;;;11.94;69.52;101213.91;1685062;84;22578;-72
2021/11/20 09:23:23;;;;;;;30.02;6.25;;;;;;;11.96;69.49;101212.20;1685079;85;21172;-73
2021/11/20 09:25:52;;;;;;;30.88;6.53;;;;;;;11.98;69.34;101213.13;1685148;84;21066;-72
2021/11/20 09:28:18;;;;;;;32.13;6.92;;;;;;;11.97;69.17;101216.60;1685070;85;21082;-72
2021/11/20 09:30:48;;;;;;;27.75;5.55;;;;;;;11.97;69.21;101209.57;1685268;85;21211;-72
2021/11/20 09:33:14;;;;;;;25.97;7.72;;;;;;;11.98;69.13;101215.33;1691618;84;21834;-72
2021/11/20 09:35:42;;;;;;;26.05;6.30;;;;;;;11.97;69.03;101223.20;1702997;84;21056;-72
2021/11/20 09:38:08;;;;;;;28.70;6.58;;;;;;;11.93;68.87;101224.86;1694275;84;21112;-72
2021/11/20 09:40:38;;;;;;;29.80;5.83;;;;;;;11.89;69.01;101225.60;1703051;84;21116;-72
2021/11/20 09:43:05;;;;;;;28.02;6.80;;;;;;;11.93;69.10;101231.45;1693642;84;21184;-73
2021/11/20 09:45:36;;;;;;;25.40;6.83;;;;;;;11.94;68.97;101233.69;1703147;84;21767;-72
2021/11/20 09:48:13;;;;;;;27.67;6.67;;;;;;;11.93;68.81;101242.00;1693898;84;21082;-72
2021/11/20 09:50:57;;;;;;;26.73;6.92;;;;;;;11.93;68.87;101233.20;1707757;83;21061;-73
2021/11/20 09:53:24;;;;;;;19.27;5.25;;;;;;;11.92;68.84;101229.69;1708089;83;21101;-73
2021/11/20 09:55:59;;;;;;;26.55;7.12;;;;;;;11.98;68.98;101224.56;1707613;83;21041;-73
2021/11/20 09:58:31;;;;;;;25.52;5.97;;;;;;;12.09;68.90;101215.63;1704252;83;21821;-72
2021/11/20 10:01:18;;;;;;;24.27;5.78;;;;;;;12.20;68.88;101215.47;1706915;83;21109;-72
2021/11/20 10:04:05;;;;;;;28.02;5.97;;;;;;;12.36;68.89;101212.78;1706585;83;21104;-72
2021/11/20 10:06:40;;;;;;;26.68;5.58;;;;;;;12.51;68.51;101202.14;1707402;83;21495;-72
2021/11/20 10:09:15;;;;;;;25.37;5.97;;;;;;;12.59;68.12;101201.48;1706996;83;21061;-72
2021/11/20 10:12:15;;;;;;;26.97;6.78;;;;;;;12.68;67.93;101207.83;1707432;83;21778;-72
2021/11/20 10:14:48;;;;;;;21.90;6.78;;;;;;;12.74;67.59;101202.69;1707214;84;21021;-72
2021/11/20 10:17:35;;;;;;;26.27;6.47;;;;;;;12.71;67.33;101193.39;1707399;84;25662;-73
2021/11/20 10:20:19;;;;;;;24.82;6.60;;;;;;;12.72;67.27;101184.16;1704303;84;21602;-73
2021/11/20 10:23:27;;;;;;;27.75;7.67;;;;;;;12.64;66.92;101170.77;1701190;84;21059;-72
2021/11/20 10:26:14;;;;;;;36.50;6.70;;;;;;;12.54;66.77;101171.87;1707293;84;22429;-72
2021/11/20 10:29:10;;;;;;;27.87;9.58;;;;;;;12.35;66.50;101169.18;1707164;84;21057;-73
2021/11/20 10:31:43;;;;;;;29.77;9.43;;;;;;;12.10;66.44;101169.89;1707361;83;21053;-73
2021/11/20 10:34:26;;;;;;;21.10;5.33;;;;;;;11.98;66.70;101171.80;1700325;84;21085;-73
2021/11/20 10:37:04;;;;;;;21.40;6.10;;;;;;;11.95;66.84;101176.10;1701533;84;21582;-73
2021/11/20 10:39:45;;;;;;;26.02;6.15;;;;;;;11.93;66.76;101169.89;1701944;84;21769;-73
2021/11/20 10:42:17;;;;;;;20.12;5.10;;;;;;;11.88;66.74;101163.16;1701276;84;21065;-73
2021/11/20 10:44:54;;;;;;;26.23;8.70;;;;;;;11.88;66.86;101159.20;1702361;84;21104;-73
2021/11/20 10:47:39;;;;;;;28.60;9.23;;;;;;;11.94;66.91;101151.47;1702218;84;21105;-73
2021/11/20 10:50:40;;;;;;;29.60;8.33;;;;;;;11.98;66.93;101154.66;1702220;84;21089;-73
2021/11/20 10:53:38;;;;;;;27.27;6.35;;;;;;;12.09;67.07;101159.30;1700951;84;22628;-73
2021/11/20 10:56:19;;;;;;;27.80;6.42;;;;;;;12.19;66.97;101141.09;1701478;84;21121;-72
2021/11/20 10:59:40;;;;;;;20.37;5.85;;;;;;;12.29;66.94;101140.00;1701948;82;21154;-72
2021/11/20 11:02:48;;;;;;;27.48;6.92;;;;;;;12.38;66.88;101135.83;1701333;84;21111;-73
2021/11/20 11:06:10;;;;;;;23.32;5.42;;;;;;;12.51;66.84;101130.42;1700911;84;21631;-72
2021/11/20 11:08:48;;;;;;;17.25;5.35;;;;;;;12.58;66.64;101121.78;1701281;84;21889;-73
2021/11/20 11:11:38;;;;;;;20.48;5.12;;;;;;;12.68;66.76;101123.31;1701395;84;21102;-72
2021/11/20 11:14:13;;;;;;;24.00;5.15;;;;;;;12.75;66.57;101119.95;1700685;84;21090;-73
2021/11/20 11:17:15;;;;;;;17.95;4.50;;;;;;;12.74;66.48;101108.47;1701454;84;21196;-73
2021/11/20 11:20:01;;;;;;;17.98;5.05;;;;;;;12.76;66.38;101096.22;1701701;84;21059;-73
2021/11/20 11:22:39;;;;;;;18.12;4.65;;;;;;;12.77;66.42;101088.74;1701347;84;21763;-73
2021/11/20 11:25:17;;;;;;;15.48;4.47;;;;;;;12.77;66.32;101080.81;1700355;84;21110;-73
2021/11/20 11:28:10;;;;;;;21.73;5.12;;;;;;;12.79;66.37;101075.58;1701989;84;21641;-73
2021/11/20 11:31:09;;;;;;;17.07;4.53;;;;;;;12.78;66.33;101062.80;1701837;84;21099;-73
2021/11/20 11:33:36;;;;;;;17.32;4.70;;;;;;;12.79;66.31;101056.64;1701393;84;21178;-72
2021/11/20 11:36:40;;;;;;;15.60;5.10;;;;;;;12.82;66.34;101049.23;1701571;84;22841;-72
2021/11/20 11:39:38;;;;;;;21.45;5.45;;;;;;;12.88;66.45;101044.50;1701607;84;21086;-72
2021/11/20 11:42:13;;;;;;;16.10;4.87;;;;;;;12.95;66.45;101025.24;1701460;84;21079;-72